sensor_id;sensor_type;location;lat;lon;timestamp;noise_LAeq;noise_LA_min;noise_LA_max;noise_LA01;noise_LA95
42701;Laerm;28316;49.504;8.526;2024-01-11T00:00:33;40.41;38.81;41.89;;
42701;Laerm;28316;49.504;8.526;2024-01-11T00:02:58;40.39;38.95;41.82;;
42701;Laerm;28316;49.504;8.526;2024-01-11T00:05:24;40.37;38.67;41.89;;
42701;Laerm;28316;49.504;8.526;2024-01-11T00:07:50;40.37;38.05;41.81;;
42701;Laerm;28316;49.504;8.526;2024-01-11T00:10:16;40.39;38.67;41.61;;
42701;Laerm;28316;49.504;8.526;2024-01-11T00:12:42;40.41;38.81;41.82;;
42701;Laerm;28316;49.504;8.526;2024-01-11T00:15:08;40.41;38.81;41.89;;
42701;Laerm;28316;49.504;8.526;2024-01-11T00:17:35;40.43;38.67;42.09;;
42701;Laerm;28316;49.504;8.526;2024-01-11T00:20:01;40.42;38.52;41.82;;
42701;Laerm;28316;49.504;8.526;2024-01-11T00:22:27;40.41;38.81;42.09;;
42701;Laerm;28316;49.504;8.526;2024-01-11T00:24:53;40.43;38.95;41.82;;
42701;Laerm;28316;49.504;8.526;2024-01-11T00:27:19;40.41;38.81;41.82;;
42701;Laerm;28316;49.504;8.526;2024-01-11T00:29:45;40.40;38.52;41.89;;
42701;Laerm;28316;49.504;8.526;2024-01-11T00:32:10;40.38;38.67;41.82;;
42701;Laerm;28316;49.504;8.526;2024-01-11T00:34:36;40.36;38.67;41.82;;
42701;Laerm;28316;49.504;8.526;2024-01-11T00:37:02;40.37;38.67;41.82;;
42701;Laerm;28316;49.504;8.526;2024-01-11T00:39:28;40.39;38.67;41.89;;
42701;Laerm;28316;49.504;8.526;2024-01-11T00:41:56;40.41;38.60;41.82;;
42701;Laerm;28316;49.504;8.526;2024-01-11T00:44:22;40.42;38.81;41.89;;
42701;Laerm;28316;49.504;8.526;2024-01-11T00:46:48;40.43;38.81;41.75;;
42701;Laerm;28316;49.504;8.526;2024-01-11T00:49:14;40.43;38.37;41.75;;
42701;Laerm;28316;49.504;8.526;2024-01-11T00:51:39;40.46;38.67;42.03;;
42701;Laerm;28316;49.504;8.526;2024-01-11T00:54:05;40.46;38.81;41.89;;
42701;Laerm;28316;49.504;8.526;2024-01-11T00:56:34;40.46;38.81;41.82;;
42701;Laerm;28316;49.504;8.526;2024-01-11T00:59:00;40.47;38.81;41.96;;
42701;Laerm;28316;49.504;8.526;2024-01-11T01:01:26;40.46;38.67;41.89;;
42701;Laerm;28316;49.504;8.526;2024-01-11T01:03:52;40.45;38.21;41.82;;
42701;Laerm;28316;49.504;8.526;2024-01-11T01:06:18;40.43;38.67;41.89;;
42701;Laerm;28316;49.504;8.526;2024-01-11T01:08:44;40.42;38.67;41.89;;
42701;Laerm;28316;49.504;8.526;2024-01-11T01:11:09;40.43;38.67;42.03;;
42701;Laerm;28316;49.504;8.526;2024-01-11T01:13:35;40.44;38.87;41.82;;
42701;Laerm;28316;49.504;8.526;2024-01-11T01:16:01;40.44;38.52;42.03;;
42701;Laerm;28316;49.504;8.526;2024-01-11T01:18:27;40.42;38.52;41.68;;
42701;Laerm;28316;49.504;8.526;2024-01-11T01:20:53;40.42;38.52;41.89;;
42701;Laerm;28316;49.504;8.526;2024-01-11T01:23:19;40.40;38.37;41.82;;
42701;Laerm;28316;49.504;8.526;2024-01-11T01:25:44;40.40;38.37;41.89;;
42701;Laerm;28316;49.504;8.526;2024-01-11T01:28:10;40.38;38.67;41.75;;
42701;Laerm;28316;49.504;8.526;2024-01-11T01:30:36;40.36;38.37;41.68;;
42701;Laerm;28316;49.504;8.526;2024-01-11T01:33:02;40.34;38.67;41.82;;
42701;Laerm;28316;49.504;8.526;2024-01-11T01:35:28;40.33;38.81;41.82;;
42701;Laerm;28316;49.504;8.526;2024-01-11T01:37:54;40.33;38.67;41.68;;
42701;Laerm;28316;49.504;8.526;2024-01-11T01:40:20;40.34;38.52;41.82;;
42701;Laerm;28316;49.504;8.526;2024-01-11T01:42:46;40.30;38.67;41.75;;
42701;Laerm;28316;49.504;8.526;2024-01-11T01:45:15;40.31;38.67;41.68;;
42701;Laerm;28316;49.504;8.526;2024-01-11T01:47:42;40.33;38.52;41.75;;
42701;Laerm;28316;49.504;8.526;2024-01-11T01:50:11;40.33;38.05;41.68;;
42701;Laerm;28316;49.504;8.526;2024-01-11T01:52:40;40.35;38.81;41.75;;
42701;Laerm;28316;49.504;8.526;2024-01-11T01:55:09;40.34;38.52;41.82;;
42701;Laerm;28316;49.504;8.526;2024-01-11T01:57:35;40.35;38.67;41.68;;
42701;Laerm;28316;49.504;8.526;2024-01-11T02:00:03;40.37;38.67;41.75;;
42701;Laerm;28316;49.504;8.526;2024-01-11T02:02:30;40.36;38.21;41.68;;
42701;Laerm;28316;49.504;8.526;2024-01-11T02:04:57;40.34;38.52;41.75;;
42701;Laerm;28316;49.504;8.526;2024-01-11T02:07:23;40.35;38.67;41.82;;
42701;Laerm;28316;49.504;8.526;2024-01-11T02:09:50;40.33;38.67;41.96;;
42701;Laerm;28316;49.504;8.526;2024-01-11T02:12:17;40.31;38.67;41.68;;
42701;Laerm;28316;49.504;8.526;2024-01-11T02:14:43;40.26;38.52;41.75;;
42701;Laerm;28316;49.504;8.526;2024-01-11T02:17:09;40.26;38.37;41.96;;
42701;Laerm;28316;49.504;8.526;2024-01-11T02:19:35;40.23;38.67;41.53;;
42701;Laerm;28316;49.504;8.526;2024-01-11T02:22:10;40.25;38.37;41.82;;
42701;Laerm;28316;49.504;8.526;2024-01-11T02:24:39;40.23;37.88;41.75;;
42701;Laerm;28316;49.504;8.526;2024-01-11T02:27:05;40.23;38.37;41.75;;
42701;Laerm;28316;49.504;8.526;2024-01-11T02:29:31;40.23;38.67;41.89;;
42701;Laerm;28316;49.504;8.526;2024-01-11T02:31:58;40.21;38.67;41.82;;
42701;Laerm;28316;49.504;8.526;2024-01-11T02:34:27;40.18;38.21;41.61;;
42701;Laerm;28316;49.504;8.526;2024-01-11T02:36:54;40.17;38.52;41.61;;
42701;Laerm;28316;49.504;8.526;2024-01-11T02:39:20;40.15;38.52;41.82;;
42701;Laerm;28316;49.504;8.526;2024-01-11T02:41:50;40.14;38.52;41.82;;
42701;Laerm;28316;49.504;8.526;2024-01-11T02:44:15;40.10;38.37;41.46;;
42701;Laerm;28316;49.504;8.526;2024-01-11T02:46:41;40.04;38.21;41.53;;
42701;Laerm;28316;49.504;8.526;2024-01-11T02:49:07;40.03;38.21;41.61;;
42701;Laerm;28316;49.504;8.526;2024-01-11T02:51:33;40.01;38.05;41.68;;
42701;Laerm;28316;49.504;8.526;2024-01-11T02:53:59;40.00;37.88;41.68;;
42701;Laerm;28316;49.504;8.526;2024-01-11T02:56:25;39.98;37.88;41.61;;
42701;Laerm;28316;49.504;8.526;2024-01-11T02:58:50;39.96;37.88;41.82;;
42701;Laerm;28316;49.504;8.526;2024-01-11T03:01:16;39.93;37.88;41.38;;
42701;Laerm;28316;49.504;8.526;2024-01-11T03:03:42;39.91;38.05;41.46;;
42701;Laerm;28316;49.504;8.526;2024-01-11T03:06:08;39.89;38.05;41.68;;
42701;Laerm;28316;49.504;8.526;2024-01-11T03:08:33;39.86;38.05;41.38;;
42701;Laerm;28316;49.504;8.526;2024-01-11T03:10:59;39.84;38.18;41.38;;
42701;Laerm;28316;49.504;8.526;2024-01-11T03:13:25;39.85;38.05;41.30;;
42701;Laerm;28316;49.504;8.526;2024-01-11T03:15:51;39.83;38.05;41.53;;
42701;Laerm;28316;49.504;8.526;2024-01-11T03:18:17;39.85;37.70;41.53;;
42701;Laerm;28316;49.504;8.526;2024-01-11T03:20:42;39.87;37.88;41.61;;
42701;Laerm;28316;49.504;8.526;2024-01-11T03:23:08;39.87;38.05;41.46;;
42701;Laerm;28316;49.504;8.526;2024-01-11T03:25:34;39.87;37.88;41.46;;
42701;Laerm;28316;49.504;8.526;2024-01-11T03:28:00;39.82;37.70;41.68;;
42701;Laerm;28316;49.504;8.526;2024-01-11T03:30:26;39.80;37.88;41.38;;
42701;Laerm;28316;49.504;8.526;2024-01-11T03:32:51;39.79;38.05;41.38;;
42701;Laerm;28316;49.504;8.526;2024-01-11T03:35:18;39.80;37.70;41.38;;
42701;Laerm;28316;49.504;8.526;2024-01-11T03:37:44;39.85;37.52;41.53;;
42701;Laerm;28316;49.504;8.526;2024-01-11T03:40:10;39.88;38.05;41.38;;
42701;Laerm;28316;49.504;8.526;2024-01-11T03:42:36;39.91;38.05;41.53;;
42701;Laerm;28316;49.504;8.526;2024-01-11T03:45:03;39.91;38.05;41.53;;
42701;Laerm;28316;49.504;8.526;2024-01-11T03:47:29;39.89;37.88;41.46;;
42701;Laerm;28316;49.504;8.526;2024-01-11T03:49:55;39.86;37.53;41.38;;
42701;Laerm;28316;49.504;8.526;2024-01-11T03:52:21;39.84;37.88;41.46;;
42701;Laerm;28316;49.504;8.526;2024-01-11T03:54:47;39.85;37.88;41.53;;
42701;Laerm;28316;49.504;8.526;2024-01-11T03:57:13;39.84;37.88;41.46;;
42701;Laerm;28316;49.504;8.526;2024-01-11T03:59:40;39.83;38.05;41.75;;
42701;Laerm;28316;49.504;8.526;2024-01-11T04:02:09;39.81;37.70;41.61;;
42701;Laerm;28316;49.504;8.526;2024-01-11T04:04:34;39.84;37.88;41.75;;
42701;Laerm;28316;49.504;8.526;2024-01-11T04:07:00;39.84;37.88;41.53;;
42701;Laerm;28316;49.504;8.526;2024-01-11T04:09:26;39.82;37.70;41.53;;
42701;Laerm;28316;49.504;8.526;2024-01-11T04:11:51;39.79;37.52;41.46;;
42701;Laerm;28316;49.504;8.526;2024-01-11T04:14:17;39.78;38.05;41.22;;
42701;Laerm;28316;49.504;8.526;2024-01-11T04:16:43;39.77;37.88;41.38;;
42701;Laerm;28316;49.504;8.526;2024-01-11T04:19:10;39.74;37.52;41.46;;
42701;Laerm;28316;49.504;8.526;2024-01-11T04:21:36;39.72;37.53;41.46;;
42701;Laerm;28316;49.504;8.526;2024-01-11T04:24:06;39.69;37.70;41.30;;
42701;Laerm;28316;49.504;8.526;2024-01-11T04:26:34;39.64;37.12;41.26;;
42701;Laerm;28316;49.504;8.526;2024-01-11T04:29:00;39.57;37.32;41.22;;
42701;Laerm;28316;49.504;8.526;2024-01-11T04:31:27;39.53;37.12;41.22;;
42701;Laerm;28316;49.504;8.526;2024-01-11T04:33:53;39.50;37.32;41.46;;
42701;Laerm;28316;49.504;8.526;2024-01-11T04:36:20;39.44;37.52;41.06;;
42701;Laerm;28316;49.504;8.526;2024-01-11T04:38:45;39.38;37.52;41.14;;
42701;Laerm;28316;49.504;8.526;2024-01-11T04:41:12;39.39;37.12;41.14;;
42701;Laerm;28316;49.504;8.526;2024-01-11T04:43:43;39.41;37.52;40.98;;
42701;Laerm;28316;49.504;8.526;2024-01-11T04:46:22;39.42;37.32;41.22;;
42701;Laerm;28316;49.504;8.526;2024-01-11T04:48:49;39.40;37.32;41.14;;
42701;Laerm;28316;49.504;8.526;2024-01-11T04:51:17;39.38;37.12;41.14;;
42701;Laerm;28316;49.504;8.526;2024-01-11T04:53:45;39.33;37.32;41.14;;
42701;Laerm;28316;49.504;8.526;2024-01-11T04:56:14;39.31;37.52;41.22;;
42701;Laerm;28316;49.504;8.526;2024-01-11T04:58:42;39.29;36.91;41.22;;
42701;Laerm;28316;49.504;8.526;2024-01-11T05:01:16;39.30;36.91;41.19;;
42701;Laerm;28316;49.504;8.526;2024-01-11T05:03:43;39.29;36.69;41.06;;
42701;Laerm;28316;49.504;8.526;2024-01-11T05:06:19;39.26;36.91;40.98;;
42701;Laerm;28316;49.504;8.526;2024-01-11T05:08:46;39.23;37.12;40.89;;
42701;Laerm;28316;49.504;8.526;2024-01-11T05:11:19;39.20;36.69;41.06;;
42701;Laerm;28316;49.504;8.526;2024-01-11T05:13:46;39.15;36.45;40.71;;
42701;Laerm;28316;49.504;8.526;2024-01-11T05:16:28;39.17;36.91;40.98;;
42701;Laerm;28316;49.504;8.526;2024-01-11T05:18:55;39.18;36.91;41.22;;
42701;Laerm;28316;49.504;8.526;2024-01-11T05:21:22;39.19;37.12;40.89;;
42701;Laerm;28316;49.504;8.526;2024-01-11T05:23:48;39.19;36.69;40.89;;
42701;Laerm;28316;49.504;8.526;2024-01-11T05:26:16;39.12;36.91;40.89;;
42701;Laerm;28316;49.504;8.526;2024-01-11T05:28:42;39.12;36.91;41.22;;
42701;Laerm;28316;49.504;8.526;2024-01-11T05:31:10;39.11;36.69;40.96;;
42701;Laerm;28316;49.504;8.526;2024-01-11T05:33:37;39.14;37.12;40.89;;
42701;Laerm;28316;49.504;8.526;2024-01-11T05:36:03;39.16;36.69;40.71;;
42701;Laerm;28316;49.504;8.526;2024-01-11T05:38:29;39.15;36.69;41.22;;
42701;Laerm;28316;49.504;8.526;2024-01-11T05:40:55;39.04;36.69;40.80;;
42701;Laerm;28316;49.504;8.526;2024-01-11T05:43:22;39.14;37.12;40.98;;
42701;Laerm;28316;49.504;8.526;2024-01-11T05:45:49;39.17;36.69;40.98;;
42701;Laerm;28316;49.504;8.526;2024-01-11T05:48:16;39.16;36.69;40.89;;
42701;Laerm;28316;49.504;8.526;2024-01-11T05:50:45;39.11;37.12;40.80;;
42701;Laerm;28316;49.504;8.526;2024-01-11T05:53:12;39.08;36.91;40.89;;
42701;Laerm;28316;49.504;8.526;2024-01-11T05:55:39;39.08;36.45;41.14;;
42701;Laerm;28316;49.504;8.526;2024-01-11T05:58:05;39.09;36.69;40.89;;
42701;Laerm;28316;49.504;8.526;2024-01-11T06:00:31;39.07;36.69;40.98;;
42701;Laerm;28316;49.504;8.526;2024-01-11T06:02:56;39.07;36.69;40.89;;
42701;Laerm;28316;49.504;8.526;2024-01-11T06:05:22;39.07;36.91;40.71;;
42701;Laerm;28316;49.504;8.526;2024-01-11T06:07:48;39.05;36.91;40.71;;
42701;Laerm;28316;49.504;8.526;2024-01-11T06:10:17;39.01;36.45;40.80;;
42701;Laerm;28316;49.504;8.526;2024-01-11T06:12:43;39.00;36.69;41.06;;
42701;Laerm;28316;49.504;8.526;2024-01-11T06:15:09;39.00;36.69;40.80;;
42701;Laerm;28316;49.504;8.526;2024-01-11T06:17:35;38.96;36.69;40.80;;
42701;Laerm;28316;49.504;8.526;2024-01-11T06:20:01;38.96;36.91;40.62;;
42701;Laerm;28316;49.504;8.526;2024-01-11T06:22:27;38.97;36.20;40.98;;
42701;Laerm;28316;49.504;8.526;2024-01-11T06:24:53;38.98;36.69;41.14;;
42701;Laerm;28316;49.504;8.526;2024-01-11T06:27:20;39.00;36.20;40.80;;
42701;Laerm;28316;49.504;8.526;2024-01-11T06:29:45;38.97;36.20;41.14;;
42701;Laerm;28316;49.504;8.526;2024-01-11T06:32:13;38.98;36.69;40.98;;
42701;Laerm;28316;49.504;8.526;2024-01-11T06:34:39;38.97;36.45;40.89;;
42701;Laerm;28316;49.504;8.526;2024-01-11T06:37:07;38.93;36.69;41.06;;
42701;Laerm;28316;49.504;8.526;2024-01-11T06:39:33;38.94;36.91;40.80;;
42701;Laerm;28316;49.504;8.526;2024-01-11T06:41:58;38.92;36.20;40.71;;
42701;Laerm;28316;49.504;8.526;2024-01-11T06:44:24;38.93;36.69;40.98;;
42701;Laerm;28316;49.504;8.526;2024-01-11T06:46:50;38.96;36.45;40.71;;
42701;Laerm;28316;49.504;8.526;2024-01-11T06:49:16;38.98;36.91;40.80;;
42701;Laerm;28316;49.504;8.526;2024-01-11T06:51:42;39.02;36.69;40.71;;
42701;Laerm;28316;49.504;8.526;2024-01-11T06:54:07;39.02;36.91;41.06;;
42701;Laerm;28316;49.504;8.526;2024-01-11T06:56:33;39.05;36.69;40.89;;
42701;Laerm;28316;49.504;8.526;2024-01-11T06:58:59;39.03;36.69;40.71;;
42701;Laerm;28316;49.504;8.526;2024-01-11T07:01:24;39.00;36.91;40.89;;
42701;Laerm;28316;49.504;8.526;2024-01-11T07:03:51;39.00;36.91;40.89;;
42701;Laerm;28316;49.504;8.526;2024-01-11T07:06:17;38.95;36.69;40.71;;
42701;Laerm;28316;49.504;8.526;2024-01-11T07:08:43;38.93;35.66;40.80;;
42701;Laerm;28316;49.504;8.526;2024-01-11T07:11:09;38.92;36.45;40.89;;
42701;Laerm;28316;49.504;8.526;2024-01-11T07:13:36;38.92;36.45;40.89;;
42701;Laerm;28316;49.504;8.526;2024-01-11T07:16:01;38.94;36.91;40.80;;
42701;Laerm;28316;49.504;8.526;2024-01-11T07:18:28;39.12;36.69;41.06;;
42701;Laerm;28316;49.504;8.526;2024-01-11T07:20:56;39.16;36.91;41.14;;
42701;Laerm;28316;49.504;8.526;2024-01-11T07:23:24;39.15;37.12;40.98;;
42701;Laerm;28316;49.504;8.526;2024-01-11T07:25:49;39.17;36.91;40.80;;
42701;Laerm;28316;49.504;8.526;2024-01-11T07:28:15;39.14;36.69;41.14;;
42701;Laerm;28316;49.504;8.526;2024-01-11T07:30:43;39.13;37.12;41.14;;
42701;Laerm;28316;49.504;8.526;2024-01-11T07:33:08;39.13;36.20;40.98;;
42701;Laerm;28316;49.504;8.526;2024-01-11T07:35:35;39.17;36.56;41.14;;
42701;Laerm;28316;49.504;8.526;2024-01-11T07:38:01;39.17;36.91;40.98;;
42701;Laerm;28316;49.504;8.526;2024-01-11T07:40:26;39.16;36.91;40.80;;
42701;Laerm;28316;49.504;8.526;2024-01-11T07:42:52;39.19;36.69;41.38;;
42701;Laerm;28316;49.504;8.526;2024-01-11T07:45:18;39.17;37.12;40.89;;
42701;Laerm;28316;49.504;8.526;2024-01-11T07:47:44;39.21;36.91;41.14;;
42701;Laerm;28316;49.504;8.526;2024-01-11T07:50:10;39.25;37.12;40.96;;
42701;Laerm;28316;49.504;8.526;2024-01-11T07:52:36;39.29;37.12;41.06;;
42701;Laerm;28316;49.504;8.526;2024-01-11T07:55:03;39.33;37.12;41.14;;
42701;Laerm;28316;49.504;8.526;2024-01-11T07:57:34;39.36;37.35;41.06;;
42701;Laerm;28316;49.504;8.526;2024-01-11T08:00:00;39.38;37.12;41.30;;
42701;Laerm;28316;49.504;8.526;2024-01-11T08:02:26;39.42;37.32;41.22;;
42701;Laerm;28316;49.504;8.526;2024-01-11T08:04:52;39.43;37.32;41.14;;
42701;Laerm;28316;49.504;8.526;2024-01-11T08:07:18;39.45;37.32;41.22;;
42701;Laerm;28316;49.504;8.526;2024-01-11T08:09:44;39.47;37.12;41.30;;
42701;Laerm;28316;49.504;8.526;2024-01-11T08:12:19;39.49;37.70;41.06;;
42701;Laerm;28316;49.504;8.526;2024-01-11T08:14:44;39.53;37.32;41.38;;
42701;Laerm;28316;49.504;8.526;2024-01-11T08:17:13;39.57;37.32;41.30;;
42701;Laerm;28316;49.504;8.526;2024-01-11T08:19:42;39.63;37.52;41.53;;
42701;Laerm;28316;49.504;8.526;2024-01-11T08:22:09;39.66;37.12;41.38;;
42701;Laerm;28316;49.504;8.526;2024-01-11T08:24:35;39.71;37.70;41.22;;
42701;Laerm;28316;49.504;8.526;2024-01-11T08:27:01;39.77;38.05;41.68;;
42701;Laerm;28316;49.504;8.526;2024-01-11T08:29:27;39.83;37.70;41.68;;
42701;Laerm;28316;49.504;8.526;2024-01-11T08:31:53;39.87;37.88;41.30;;
42701;Laerm;28316;49.504;8.526;2024-01-11T08:34:20;39.98;38.05;41.53;;
42701;Laerm;28316;49.504;8.526;2024-01-11T08:36:46;40.05;38.21;41.53;;
42701;Laerm;28316;49.504;8.526;2024-01-11T08:39:13;40.12;37.70;41.75;;
42701;Laerm;28316;49.504;8.526;2024-01-11T08:41:40;40.17;38.05;41.61;;
42701;Laerm;28316;49.504;8.526;2024-01-11T08:44:06;40.22;38.21;41.82;;
42701;Laerm;28316;49.504;8.526;2024-01-11T08:46:32;40.25;38.21;41.75;;
42701;Laerm;28316;49.504;8.526;2024-01-11T08:49:04;40.29;38.37;41.82;;
42701;Laerm;28316;49.504;8.526;2024-01-11T08:51:31;40.31;38.37;41.75;;
42701;Laerm;28316;49.504;8.526;2024-01-11T08:53:58;40.34;38.81;41.68;;
42701;Laerm;28316;49.504;8.526;2024-01-11T08:56:24;40.38;38.67;41.82;;
42701;Laerm;28316;49.504;8.526;2024-01-11T08:58:49;40.41;38.95;41.75;;
42701;Laerm;28316;49.504;8.526;2024-01-11T09:01:16;40.47;38.52;41.82;;
42701;Laerm;28316;49.504;8.526;2024-01-11T09:03:41;40.49;38.81;41.89;;
42701;Laerm;28316;49.504;8.526;2024-01-11T09:06:07;40.53;38.67;41.96;;
42701;Laerm;28316;49.504;8.526;2024-01-11T09:08:33;40.58;38.37;41.89;;
42701;Laerm;28316;49.504;8.526;2024-01-11T09:10:59;40.61;38.95;41.89;;
42701;Laerm;28316;49.504;8.526;2024-01-11T09:13:28;40.66;38.81;42.09;;
42701;Laerm;28316;49.504;8.526;2024-01-11T09:15:56;40.68;38.95;42.03;;
42701;Laerm;28316;49.504;8.526;2024-01-11T09:18:22;40.72;39.08;42.03;;
42701;Laerm;28316;49.504;8.526;2024-01-11T09:20:48;40.77;39.21;42.29;;
42701;Laerm;28316;49.504;8.526;2024-01-11T09:23:14;40.80;38.95;42.09;;
42701;Laerm;28316;49.504;8.526;2024-01-11T09:25:41;40.86;39.34;42.16;;
42701;Laerm;28316;49.504;8.526;2024-01-11T09:28:06;40.92;39.34;42.47;;
42701;Laerm;28316;49.504;8.526;2024-01-11T09:30:33;40.96;39.34;42.16;;
42701;Laerm;28316;49.504;8.526;2024-01-11T09:32:59;41.01;39.21;42.41;;
42701;Laerm;28316;49.504;8.526;2024-01-11T09:35:24;41.07;39.68;42.35;;
42701;Laerm;28316;49.504;8.526;2024-01-11T09:37:51;41.13;39.46;42.29;;
42701;Laerm;28316;49.504;8.526;2024-01-11T09:40:18;41.15;39.58;42.47;;
42701;Laerm;28316;49.504;8.526;2024-01-11T09:42:44;41.22;39.92;42.41;;
42701;Laerm;28316;49.504;8.526;2024-01-11T09:45:15;41.45;39.81;42.71;;
42701;Laerm;28316;49.504;8.526;2024-01-11T09:47:42;41.56;40.03;42.88;;
42701;Laerm;28316;49.504;8.526;2024-01-11T09:50:10;41.59;40.13;42.76;;
42701;Laerm;28316;49.504;8.526;2024-01-11T09:52:36;41.54;39.92;42.93;;
42701;Laerm;28316;49.504;8.526;2024-01-11T09:55:04;41.51;39.81;42.71;;
42701;Laerm;28316;49.504;8.526;2024-01-11T09:57:31;41.49;39.92;42.76;;
42701;Laerm;28316;49.504;8.526;2024-01-11T10:00:04;41.46;39.70;42.82;;
42701;Laerm;28316;49.504;8.526;2024-01-11T10:02:33;41.41;39.34;42.76;;
42701;Laerm;28316;49.504;8.526;2024-01-11T10:05:01;41.36;39.81;42.88;;
42701;Laerm;28316;49.504;8.526;2024-01-11T10:07:28;41.32;39.81;42.82;;
42701;Laerm;28316;49.504;8.526;2024-01-11T10:09:55;41.28;39.58;42.71;;
42701;Laerm;28316;49.504;8.526;2024-01-11T10:12:23;41.24;39.46;42.65;;
42701;Laerm;28316;49.504;8.526;2024-01-11T10:14:51;41.22;39.34;42.59;;
42701;Laerm;28316;49.504;8.526;2024-01-11T10:17:19;41.14;39.21;42.59;;
42701;Laerm;28316;49.504;8.526;2024-01-11T10:19:45;41.07;38.95;42.59;;
42701;Laerm;28316;49.504;8.526;2024-01-11T10:22:11;41.01;38.81;42.71;;
42701;Laerm;28316;49.504;8.526;2024-01-11T10:24:43;40.96;38.67;42.82;;
42701;Laerm;28316;49.504;8.526;2024-01-11T10:27:09;40.86;38.95;42.47;;
42701;Laerm;28316;49.504;8.526;2024-01-11T10:29:37;40.80;38.81;42.35;;
42701;Laerm;28316;49.504;8.526;2024-01-11T10:32:06;40.75;38.52;42.65;;
42701;Laerm;28316;49.504;8.526;2024-01-11T10:34:32;40.73;38.37;42.59;;
42701;Laerm;28316;49.504;8.526;2024-01-11T10:36:59;40.71;38.52;42.53;;
42701;Laerm;28316;49.504;8.526;2024-01-11T10:39:26;40.63;38.52;42.47;;
42701;Laerm;28316;49.504;8.526;2024-01-11T10:42:05;40.59;38.37;43.72;;
42701;Laerm;28316;49.504;8.526;2024-01-11T10:44:34;40.57;38.21;42.16;;
42701;Laerm;28316;49.504;8.526;2024-01-11T10:47:03;40.52;37.88;42.53;;
42701;Laerm;28316;49.504;8.526;2024-01-11T10:49:33;40.52;38.37;42.53;;
42701;Laerm;28316;49.504;8.526;2024-01-11T10:52:02;40.46;38.21;42.16;;
42701;Laerm;28316;49.504;8.526;2024-01-11T10:54:28;40.45;38.05;42.16;;
42701;Laerm;28316;49.504;8.526;2024-01-11T10:56:58;40.44;38.21;42.35;;
42701;Laerm;28316;49.504;8.526;2024-01-11T10:59:27;40.43;38.21;42.53;;
42701;Laerm;28316;49.504;8.526;2024-01-11T11:01:59;40.40;37.88;42.09;;
42701;Laerm;28316;49.504;8.526;2024-01-11T11:04:31;40.41;38.32;42.16;;
42701;Laerm;28316;49.504;8.526;2024-01-11T11:07:01;40.36;38.05;42.35;;
42701;Laerm;28316;49.504;8.526;2024-01-11T11:09:28;40.33;37.88;42.09;;
42701;Laerm;28316;49.504;8.526;2024-01-11T11:11:59;40.32;38.02;42.16;;
42701;Laerm;28316;49.504;8.526;2024-01-11T11:14:25;40.29;37.70;42.09;;
42701;Laerm;28316;49.504;8.526;2024-01-11T11:16:52;40.29;38.21;42.24;;
42701;Laerm;28316;49.504;8.526;2024-01-11T11:19:20;40.30;37.70;43.46;;
42701;Laerm;28316;49.504;8.526;2024-01-11T11:21:48;40.23;37.88;42.09;;
42701;Laerm;28316;49.504;8.526;2024-01-11T11:24:15;40.24;37.52;43.90;;
42701;Laerm;28316;49.504;8.526;2024-01-11T11:26:42;40.20;38.05;42.22;;
42701;Laerm;28316;49.504;8.526;2024-01-11T11:29:09;40.19;37.88;42.09;;
42701;Laerm;28316;49.504;8.526;2024-01-11T11:31:42;40.20;37.52;41.89;;
42701;Laerm;28316;49.504;8.526;2024-01-11T11:34:12;40.19;37.52;42.16;;
42701;Laerm;28316;49.504;8.526;2024-01-11T11:36:40;40.17;37.52;42.22;;
42701;Laerm;28316;49.504;8.526;2024-01-11T11:39:10;40.13;37.52;41.89;;
42701;Laerm;28316;49.504;8.526;2024-01-11T11:41:39;40.12;37.52;42.35;;
42701;Laerm;28316;49.504;8.526;2024-01-11T11:44:07;40.13;37.52;43.63;;
42701;Laerm;28316;49.504;8.526;2024-01-11T11:46:37;40.08;37.12;41.94;;
42701;Laerm;28316;49.504;8.526;2024-01-11T11:49:03;40.07;37.32;42.03;;
42701;Laerm;28316;49.504;8.526;2024-01-11T11:51:29;40.03;37.12;41.94;;
42701;Laerm;28316;49.504;8.526;2024-01-11T11:53:55;40.02;37.32;42.03;;
42701;Laerm;28316;49.504;8.526;2024-01-11T11:56:22;40.03;37.52;42.03;;
42701;Laerm;28316;49.504;8.526;2024-01-11T11:58:49;40.01;37.12;41.75;;
42701;Laerm;28316;49.504;8.526;2024-01-11T12:01:17;40.01;37.70;42.29;;
42701;Laerm;28316;49.504;8.526;2024-01-11T12:03:45;40.02;37.12;42.09;;
42701;Laerm;28316;49.504;8.526;2024-01-11T12:06:19;40.01;37.52;42.09;;
42701;Laerm;28316;49.504;8.526;2024-01-11T12:08:47;39.99;37.52;43.49;;
42701;Laerm;28316;49.504;8.526;2024-01-11T12:11:16;39.99;37.12;41.89;;
42701;Laerm;28316;49.504;8.526;2024-01-11T12:13:43;39.99;36.69;42.71;;
42701;Laerm;28316;49.504;8.526;2024-01-11T12:16:11;39.95;37.32;42.98;;
42701;Laerm;28316;49.504;8.526;2024-01-11T12:18:40;39.94;37.32;41.96;;
42701;Laerm;28316;49.504;8.526;2024-01-11T12:21:09;39.93;37.12;42.22;;
42701;Laerm;28316;49.504;8.526;2024-01-11T12:23:43;39.94;36.98;41.82;;
42701;Laerm;28316;49.504;8.526;2024-01-11T12:26:09;39.94;37.32;41.89;;
42701;Laerm;28316;49.504;8.526;2024-01-11T12:28:39;39.91;37.32;41.82;;
42701;Laerm;28316;49.504;8.526;2024-01-11T12:31:06;39.93;36.91;41.82;;
42701;Laerm;28316;49.504;8.526;2024-01-11T12:33:32;39.89;36.91;41.75;;
42701;Laerm;28316;49.504;8.526;2024-01-11T12:36:00;39.93;36.91;42.03;;
42701;Laerm;28316;49.504;8.526;2024-01-11T12:38:26;39.91;37.32;41.88;;
42701;Laerm;28316;49.504;8.526;2024-01-11T12:40:53;39.87;37.12;41.82;;
42701;Laerm;28316;49.504;8.526;2024-01-11T12:43:18;39.90;37.12;43.72;;
42701;Laerm;28316;49.504;8.526;2024-01-11T12:45:45;39.89;36.91;41.89;;
42701;Laerm;28316;49.504;8.526;2024-01-11T12:48:11;39.86;37.32;41.75;;
42701;Laerm;28316;49.504;8.526;2024-01-11T12:50:40;39.89;37.12;41.89;;
42701;Laerm;28316;49.504;8.526;2024-01-11T12:53:14;39.86;36.91;41.68;;
42701;Laerm;28316;49.504;8.526;2024-01-11T12:56:01;39.84;37.32;41.82;;
42701;Laerm;28316;49.504;8.526;2024-01-11T12:58:27;39.83;36.91;42.09;;
42701;Laerm;28316;49.504;8.526;2024-01-11T13:00:53;39.79;36.20;41.61;;
42701;Laerm;28316;49.504;8.526;2024-01-11T13:03:19;39.81;36.98;42.16;;
42701;Laerm;28316;49.504;8.526;2024-01-11T13:05:46;39.84;37.12;41.82;;
42701;Laerm;28316;49.504;8.526;2024-01-11T13:08:12;39.81;36.69;41.68;;
42701;Laerm;28316;49.504;8.526;2024-01-11T13:10:38;39.85;37.12;42.47;;
42701;Laerm;28316;49.504;8.526;2024-01-11T13:13:04;39.82;36.91;42.47;;
42701;Laerm;28316;49.504;8.526;2024-01-11T13:15:33;39.83;36.45;42.35;;
42701;Laerm;28316;49.504;8.526;2024-01-11T13:18:02;39.77;37.12;42.93;;
42701;Laerm;28316;49.504;8.526;2024-01-11T13:20:28;39.86;37.12;43.49;;
42701;Laerm;28316;49.504;8.526;2024-01-11T13:23:17;39.84;37.12;42.16;;
42701;Laerm;28316;49.504;8.526;2024-01-11T13:25:47;39.77;36.20;41.75;;
42701;Laerm;28316;49.504;8.526;2024-01-11T13:28:13;39.80;36.69;41.75;;
42701;Laerm;28316;49.504;8.526;2024-01-11T13:30:40;39.78;36.69;41.68;;
42701;Laerm;28316;49.504;8.526;2024-01-11T13:33:08;39.78;36.20;42.03;;
42701;Laerm;28316;49.504;8.526;2024-01-11T13:35:39;39.79;37.12;42.09;;
42701;Laerm;28316;49.504;8.526;2024-01-11T13:38:05;39.81;37.12;43.04;;
42701;Laerm;28316;49.504;8.526;2024-01-11T13:40:32;39.81;36.91;43.09;;
42701;Laerm;28316;49.504;8.526;2024-01-11T13:42:58;39.81;37.32;42.71;;